sensor_id;sensor_type;location;lat;lon;timestamp;temperature;humidity
72206;DHT22;60111;48.286;7.812;2023-06-04T00:01:19;17.20;60.60
72206;DHT22;60111;48.286;7.812;2023-06-04T00:03:51;17.10;60.80
72206;DHT22;60111;48.286;7.812;2023-06-04T00:06:24;17.10;61.10
72206;DHT22;60111;48.286;7.812;2023-06-04T00:08:57;17.10;60.80
72206;DHT22;60111;48.286;7.812;2023-06-04T00:11:29;17.00;61.10
72206;DHT22;60111;48.286;7.812;2023-06-04T00:14:04;17.00;61.30
72206;DHT22;60111;48.286;7.812;2023-06-04T00:16:41;17.00;60.80
72206;DHT22;60111;48.286;7.812;2023-06-04T00:19:15;16.90;60.90
72206;DHT22;60111;48.286;7.812;2023-06-04T00:21:47;16.90;60.70
72206;DHT22;60111;48.286;7.812;2023-06-04T00:24:20;16.90;61.10
72206;DHT22;60111;48.286;7.812;2023-06-04T00:26:52;16.80;61.10
72206;DHT22;60111;48.286;7.812;2023-06-04T00:29:25;16.80;61.20
72206;DHT22;60111;48.286;7.812;2023-06-04T00:31:58;16.70;61.50
72206;DHT22;60111;48.286;7.812;2023-06-04T00:34:30;16.70;61.60
72206;DHT22;60111;48.286;7.812;2023-06-04T00:37:03;16.70;61.60
72206;DHT22;60111;48.286;7.812;2023-06-04T00:39:36;16.60;61.60
72206;DHT22;60111;48.286;7.812;2023-06-04T00:42:09;16.60;61.50
72206;DHT22;60111;48.286;7.812;2023-06-04T00:44:42;16.60;62.00
72206;DHT22;60111;48.286;7.812;2023-06-04T00:47:18;16.50;62.10
72206;DHT22;60111;48.286;7.812;2023-06-04T00:49:56;16.50;62.00
72206;DHT22;60111;48.286;7.812;2023-06-04T00:52:28;16.50;61.90
72206;DHT22;60111;48.286;7.812;2023-06-04T00:55:00;16.40;62.00
72206;DHT22;60111;48.286;7.812;2023-06-04T00:57:33;16.40;62.30
72206;DHT22;60111;48.286;7.812;2023-06-04T01:00:07;16.30;62.50
72206;DHT22;60111;48.286;7.812;2023-06-04T01:02:40;16.20;62.80
72206;DHT22;60111;48.286;7.812;2023-06-04T01:05:33;16.20;63.00
72206;DHT22;60111;48.286;7.812;2023-06-04T01:08:01;16.10;63.50
72206;DHT22;60111;48.286;7.812;2023-06-04T01:10:34;16.10;63.90
72206;DHT22;60111;48.286;7.812;2023-06-04T01:13:07;16.10;64.00
72206;DHT22;60111;48.286;7.812;2023-06-04T01:15:40;16.00;64.00
72206;DHT22;60111;48.286;7.812;2023-06-04T01:18:15;16.00;64.10
72206;DHT22;60111;48.286;7.812;2023-06-04T01:20:51;16.00;64.10
72206;DHT22;60111;48.286;7.812;2023-06-04T01:23:32;16.00;63.90
72206;DHT22;60111;48.286;7.812;2023-06-04T01:26:03;16.00;64.00
72206;DHT22;60111;48.286;7.812;2023-06-04T01:28:36;15.90;64.20
72206;DHT22;60111;48.286;7.812;2023-06-04T01:31:10;15.90;64.50
72206;DHT22;60111;48.286;7.812;2023-06-04T01:33:43;15.90;64.50
72206;DHT22;60111;48.286;7.812;2023-06-04T01:36:16;15.80;64.90
72206;DHT22;60111;48.286;7.812;2023-06-04T01:38:49;15.80;65.10
72206;DHT22;60111;48.286;7.812;2023-06-04T01:41:22;15.70;65.50
72206;DHT22;60111;48.286;7.812;2023-06-04T01:43:54;15.70;65.50
72206;DHT22;60111;48.286;7.812;2023-06-04T01:46:27;15.70;65.50
72206;DHT22;60111;48.286;7.812;2023-06-04T01:48:59;15.60;65.60
72206;DHT22;60111;48.286;7.812;2023-06-04T01:51:32;15.50;65.80
72206;DHT22;60111;48.286;7.812;2023-06-04T01:54:04;15.50;66.00
72206;DHT22;60111;48.286;7.812;2023-06-04T01:56:37;15.40;65.90
72206;DHT22;60111;48.286;7.812;2023-06-04T01:59:10;15.30;66.60
72206;DHT22;60111;48.286;7.812;2023-06-04T02:01:43;15.30;66.60
72206;DHT22;60111;48.286;7.812;2023-06-04T02:04:16;15.30;66.50
72206;DHT22;60111;48.286;7.812;2023-06-04T02:06:49;15.30;65.70
72206;DHT22;60111;48.286;7.812;2023-06-04T02:09:22;15.30;65.20
72206;DHT22;60111;48.286;7.812;2023-06-04T02:11:54;15.30;65.00
72206;DHT22;60111;48.286;7.812;2023-06-04T02:14:27;15.20;64.30
72206;DHT22;60111;48.286;7.812;2023-06-04T02:16:59;15.20;64.40
72206;DHT22;60111;48.286;7.812;2023-06-04T02:19:36;15.20;64.40
72206;DHT22;60111;48.286;7.812;2023-06-04T02:22:11;15.20;64.00
72206;DHT22;60111;48.286;7.812;2023-06-04T02:24:44;15.10;63.90
72206;DHT22;60111;48.286;7.812;2023-06-04T02:27:17;15.00;63.80
72206;DHT22;60111;48.286;7.812;2023-06-04T02:29:50;15.00;63.80
72206;DHT22;60111;48.286;7.812;2023-06-04T02:32:22;14.90;63.90
72206;DHT22;60111;48.286;7.812;2023-06-04T02:34:55;14.90;63.40
72206;DHT22;60111;48.286;7.812;2023-06-04T02:37:28;14.80;63.60
72206;DHT22;60111;48.286;7.812;2023-06-04T02:40:02;14.80;63.60
72206;DHT22;60111;48.286;7.812;2023-06-04T02:42:35;14.80;63.30
72206;DHT22;60111;48.286;7.812;2023-06-04T02:45:09;14.80;63.50
72206;DHT22;60111;48.286;7.812;2023-06-04T02:47:42;14.70;63.60
72206;DHT22;60111;48.286;7.812;2023-06-04T02:50:15;14.60;63.80
72206;DHT22;60111;48.286;7.812;2023-06-04T02:52:48;14.60;63.90
72206;DHT22;60111;48.286;7.812;2023-06-04T02:55:21;14.50;63.90
72206;DHT22;60111;48.286;7.812;2023-06-04T02:57:53;14.50;64.10
72206;DHT22;60111;48.286;7.812;2023-06-04T03:00:26;14.50;63.80
72206;DHT22;60111;48.286;7.812;2023-06-04T03:02:58;14.50;63.50
72206;DHT22;60111;48.286;7.812;2023-06-04T03:05:32;14.60;63.40
72206;DHT22;60111;48.286;7.812;2023-06-04T03:08:05;14.50;63.30
72206;DHT22;60111;48.286;7.812;2023-06-04T03:10:38;14.50;63.60
72206;DHT22;60111;48.286;7.812;2023-06-04T03:13:10;14.50;63.20
72206;DHT22;60111;48.286;7.812;2023-06-04T03:15:43;14.50;63.60
72206;DHT22;60111;48.286;7.812;2023-06-04T03:18:16;14.40;63.40
72206;DHT22;60111;48.286;7.812;2023-06-04T03:20:49;14.50;63.00
72206;DHT22;60111;48.286;7.812;2023-06-04T03:23:22;14.40;62.90
72206;DHT22;60111;48.286;7.812;2023-06-04T03:25:54;14.40;63.50
72206;DHT22;60111;48.286;7.812;2023-06-04T03:28:27;14.30;63.10
72206;DHT22;60111;48.286;7.812;2023-06-04T03:31:00;14.30;63.50
72206;DHT22;60111;48.286;7.812;2023-06-04T03:33:33;14.30;63.20
72206;DHT22;60111;48.286;7.812;2023-06-04T03:36:06;14.20;63.40
72206;DHT22;60111;48.286;7.812;2023-06-04T03:38:39;14.30;62.90
72206;DHT22;60111;48.286;7.812;2023-06-04T03:41:11;14.30;62.80
72206;DHT22;60111;48.286;7.812;2023-06-04T03:43:44;14.30;63.10
72206;DHT22;60111;48.286;7.812;2023-06-04T03:46:16;14.30;63.00
72206;DHT22;60111;48.286;7.812;2023-06-04T03:48:49;14.30;63.50
72206;DHT22;60111;48.286;7.812;2023-06-04T03:51:21;14.40;63.10
72206;DHT22;60111;48.286;7.812;2023-06-04T03:53:54;14.40;62.80
72206;DHT22;60111;48.286;7.812;2023-06-04T03:56:26;14.40;62.80
72206;DHT22;60111;48.286;7.812;2023-06-04T03:58:59;14.30;62.90
72206;DHT22;60111;48.286;7.812;2023-06-04T04:01:32;14.40;62.50
72206;DHT22;60111;48.286;7.812;2023-06-04T04:04:05;14.30;62.60
72206;DHT22;60111;48.286;7.812;2023-06-04T04:06:38;14.30;62.60
72206;DHT22;60111;48.286;7.812;2023-06-04T04:09:11;14.20;62.80
72206;DHT22;60111;48.286;7.812;2023-06-04T04:11:44;14.30;63.00
72206;DHT22;60111;48.286;7.812;2023-06-04T04:14:16;14.30;62.60
72206;DHT22;60111;48.286;7.812;2023-06-04T04:16:49;14.30;62.90
72206;DHT22;60111;48.286;7.812;2023-06-04T04:19:21;14.30;62.50
72206;DHT22;60111;48.286;7.812;2023-06-04T04:21:54;14.30;62.50
72206;DHT22;60111;48.286;7.812;2023-06-04T04:24:27;14.30;62.40
72206;DHT22;60111;48.286;7.812;2023-06-04T04:27:00;14.40;62.10
72206;DHT22;60111;48.286;7.812;2023-06-04T04:29:34;14.40;62.30
72206;DHT22;60111;48.286;7.812;2023-06-04T04:32:07;14.50;62.20
72206;DHT22;60111;48.286;7.812;2023-06-04T04:34:53;14.60;61.30
72206;DHT22;60111;48.286;7.812;2023-06-04T04:37:26;14.60;61.00
72206;DHT22;60111;48.286;7.812;2023-06-04T04:39:59;14.70;60.80
72206;DHT22;60111;48.286;7.812;2023-06-04T04:42:31;14.60;60.50
72206;DHT22;60111;48.286;7.812;2023-06-04T04:45:04;14.60;61.30
72206;DHT22;60111;48.286;7.812;2023-06-04T04:47:37;14.70;61.10
72206;DHT22;60111;48.286;7.812;2023-06-04T04:50:11;14.80;60.40
72206;DHT22;60111;48.286;7.812;2023-06-04T04:52:43;14.80;60.20
72206;DHT22;60111;48.286;7.812;2023-06-04T04:55:16;14.90;59.90
72206;DHT22;60111;48.286;7.812;2023-06-04T04:57:48;14.90;60.10
72206;DHT22;60111;48.286;7.812;2023-06-04T05:00:21;15.00;59.20
72206;DHT22;60111;48.286;7.812;2023-06-04T05:02:53;15.00;59.20
72206;DHT22;60111;48.286;7.812;2023-06-04T05:05:26;15.00;59.30
72206;DHT22;60111;48.286;7.812;2023-06-04T05:07:59;15.10;58.80
72206;DHT22;60111;48.286;7.812;2023-06-04T05:10:32;15.00;58.50
72206;DHT22;60111;48.286;7.812;2023-06-04T05:13:06;15.00;58.40
72206;DHT22;60111;48.286;7.812;2023-06-04T05:15:40;15.10;58.30
72206;DHT22;60111;48.286;7.812;2023-06-04T05:18:14;15.10;58.70
72206;DHT22;60111;48.286;7.812;2023-06-04T05:20:47;15.20;58.70
72206;DHT22;60111;48.286;7.812;2023-06-04T05:23:20;15.30;57.70
72206;DHT22;60111;48.286;7.812;2023-06-04T05:25:53;15.40;58.20
72206;DHT22;60111;48.286;7.812;2023-06-04T05:28:26;15.40;57.20
72206;DHT22;60111;48.286;7.812;2023-06-04T05:30:59;15.40;57.10
72206;DHT22;60111;48.286;7.812;2023-06-04T05:33:31;15.30;56.90
72206;DHT22;60111;48.286;7.812;2023-06-04T05:36:04;15.30;57.20
72206;DHT22;60111;48.286;7.812;2023-06-04T05:38:36;15.20;56.90
72206;DHT22;60111;48.286;7.812;2023-06-04T05:41:09;15.30;57.30
72206;DHT22;60111;48.286;7.812;2023-06-04T05:43:42;15.30;56.70
72206;DHT22;60111;48.286;7.812;2023-06-04T05:46:15;15.30;56.40
72206;DHT22;60111;48.286;7.812;2023-06-04T05:48:48;15.30;56.40
72206;DHT22;60111;48.286;7.812;2023-06-04T05:51:22;15.40;57.20
72206;DHT22;60111;48.286;7.812;2023-06-04T05:53:55;15.40;56.90
72206;DHT22;60111;48.286;7.812;2023-06-04T05:56:27;15.40;57.10
72206;DHT22;60111;48.286;7.812;2023-06-04T05:59:00;15.40;56.80
72206;DHT22;60111;48.286;7.812;2023-06-04T06:01:32;15.50;57.20
72206;DHT22;60111;48.286;7.812;2023-06-04T06:04:06;15.70;56.20
72206;DHT22;60111;48.286;7.812;2023-06-04T06:06:38;15.80;56.80
72206;DHT22;60111;48.286;7.812;2023-06-04T06:09:12;15.90;56.50
72206;DHT22;60111;48.286;7.812;2023-06-04T06:11:45;16.00;55.20
72206;DHT22;60111;48.286;7.812;2023-06-04T06:14:17;16.10;55.20
72206;DHT22;60111;48.286;7.812;2023-06-04T06:16:50;16.10;56.00
72206;DHT22;60111;48.286;7.812;2023-06-04T06:19:24;16.20;56.00
72206;DHT22;60111;48.286;7.812;2023-06-04T06:21:58;16.40;56.20
72206;DHT22;60111;48.286;7.812;2023-06-04T06:24:30;16.60;55.80
72206;DHT22;60111;48.286;7.812;2023-06-04T06:27:03;16.80;54.20
72206;DHT22;60111;48.286;7.812;2023-06-04T06:29:36;16.90;54.30
72206;DHT22;60111;48.286;7.812;2023-06-04T06:32:11;17.10;53.50
72206;DHT22;60111;48.286;7.812;2023-06-04T06:34:43;17.20;54.00
72206;DHT22;60111;48.286;7.812;2023-06-04T06:37:16;17.20;55.50
72206;DHT22;60111;48.286;7.812;2023-06-04T06:39:48;17.30;53.00
72206;DHT22;60111;48.286;7.812;2023-06-04T06:42:21;17.40;52.70
72206;DHT22;60111;48.286;7.812;2023-06-04T06:44:54;17.30;53.80
72206;DHT22;60111;48.286;7.812;2023-06-04T06:47:27;17.20;53.30
72206;DHT22;60111;48.286;7.812;2023-06-04T06:49:59;17.20;54.00
72206;DHT22;60111;48.286;7.812;2023-06-04T06:52:32;17.30;54.30
72206;DHT22;60111;48.286;7.812;2023-06-04T06:55:05;17.30;53.80
72206;DHT22;60111;48.286;7.812;2023-06-04T06:57:37;17.30;54.90
72206;DHT22;60111;48.286;7.812;2023-06-04T07:00:11;17.40;53.40
72206;DHT22;60111;48.286;7.812;2023-06-04T07:02:44;17.40;54.20
72206;DHT22;60111;48.286;7.812;2023-06-04T07:05:16;17.40;53.70
72206;DHT22;60111;48.286;7.812;2023-06-04T07:07:49;17.30;54.10
72206;DHT22;60111;48.286;7.812;2023-06-04T07:10:22;17.20;53.60
72206;DHT22;60111;48.286;7.812;2023-06-04T07:12:54;17.10;53.70
72206;DHT22;60111;48.286;7.812;2023-06-04T07:15:27;17.00;54.90
72206;DHT22;60111;48.286;7.812;2023-06-04T07:17:59;17.00;54.50
72206;DHT22;60111;48.286;7.812;2023-06-04T07:20:32;16.90;54.60
72206;DHT22;60111;48.286;7.812;2023-06-04T07:23:04;16.70;57.40
72206;DHT22;60111;48.286;7.812;2023-06-04T07:25:38;16.50;58.90
72206;DHT22;60111;48.286;7.812;2023-06-04T07:28:11;16.30;60.00
72206;DHT22;60111;48.286;7.812;2023-06-04T07:30:45;16.10;60.50
72206;DHT22;60111;48.286;7.812;2023-06-04T07:33:18;15.90;61.80
72206;DHT22;60111;48.286;7.812;2023-06-04T07:35:51;15.70;62.60
72206;DHT22;60111;48.286;7.812;2023-06-04T07:38:24;15.50;63.30
72206;DHT22;60111;48.286;7.812;2023-06-04T07:40:56;15.40;65.20
72206;DHT22;60111;48.286;7.812;2023-06-04T07:43:29;15.30;66.40
72206;DHT22;60111;48.286;7.812;2023-06-04T07:46:02;15.10;67.70
72206;DHT22;60111;48.286;7.812;2023-06-04T07:48:35;15.10;69.10
72206;DHT22;60111;48.286;7.812;2023-06-04T07:51:07;15.00;70.20
72206;DHT22;60111;48.286;7.812;2023-06-04T07:53:41;14.90;70.70
72206;DHT22;60111;48.286;7.812;2023-06-04T07:56:15;14.80;70.20
72206;DHT22;60111;48.286;7.812;2023-06-04T07:58:48;14.70;72.40
72206;DHT22;60111;48.286;7.812;2023-06-04T08:01:21;14.50;72.60
72206;DHT22;60111;48.286;7.812;2023-06-04T08:03:55;14.40;74.20
72206;DHT22;60111;48.286;7.812;2023-06-04T08:06:29;14.40;75.30
72206;DHT22;60111;48.286;7.812;2023-06-04T08:09:02;14.30;75.00
72206;DHT22;60111;48.286;7.812;2023-06-04T08:11:34;14.20;75.20
72206;DHT22;60111;48.286;7.812;2023-06-04T08:14:07;14.20;77.00
72206;DHT22;60111;48.286;7.812;2023-06-04T08:16:40;14.20;77.70
72206;DHT22;60111;48.286;7.812;2023-06-04T08:19:13;14.30;77.20
72206;DHT22;60111;48.286;7.812;2023-06-04T08:21:47;14.20;77.70
72206;DHT22;60111;48.286;7.812;2023-06-04T08:24:19;14.20;78.20
72206;DHT22;60111;48.286;7.812;2023-06-04T08:26:52;14.20;76.90
72206;DHT22;60111;48.286;7.812;2023-06-04T08:29:25;14.10;77.50
72206;DHT22;60111;48.286;7.812;2023-06-04T08:31:58;14.00;76.70
72206;DHT22;60111;48.286;7.812;2023-06-04T08:34:30;14.00;77.30
72206;DHT22;60111;48.286;7.812;2023-06-04T08:37:03;14.10;80.50
72206;DHT22;60111;48.286;7.812;2023-06-04T08:39:36;14.10;80.90
72206;DHT22;60111;48.286;7.812;2023-06-04T08:42:15;14.20;81.60
72206;DHT22;60111;48.286;7.812;2023-06-04T08:44:51;14.30;81.00
72206;DHT22;60111;48.286;7.812;2023-06-04T08:47:26;14.30;79.00
72206;DHT22;60111;48.286;7.812;2023-06-04T08:50:00;14.30;80.30
72206;DHT22;60111;48.286;7.812;2023-06-04T08:52:34;14.30;80.70
72206;DHT22;60111;48.286;7.812;2023-06-04T08:55:08;14.40;80.60
72206;DHT22;60111;48.286;7.812;2023-06-04T08:57:43;14.40;81.00
72206;DHT22;60111;48.286;7.812;2023-06-04T09:00:17;14.50;81.20
72206;DHT22;60111;48.286;7.812;2023-06-04T09:02:50;14.50;81.00
72206;DHT22;60111;48.286;7.812;2023-06-04T09:05:23;14.70;81.70
72206;DHT22;60111;48.286;7.812;2023-06-04T09:07:59;14.70;80.90
72206;DHT22;60111;48.286;7.812;2023-06-04T09:10:32;14.80;81.10
72206;DHT22;60111;48.286;7.812;2023-06-04T09:13:06;14.90;82.10
72206;DHT22;60111;48.286;7.812;2023-06-04T09:15:41;14.90;81.20
72206;DHT22;60111;48.286;7.812;2023-06-04T09:18:14;14.90;81.10
72206;DHT22;60111;48.286;7.812;2023-06-04T09:20:46;15.00;80.20
72206;DHT22;60111;48.286;7.812;2023-06-04T09:23:19;15.00;81.40
72206;DHT22;60111;48.286;7.812;2023-06-04T09:25:54;15.00;81.90
72206;DHT22;60111;48.286;7.812;2023-06-04T09:28:29;15.10;82.00
72206;DHT22;60111;48.286;7.812;2023-06-04T09:31:03;15.20;81.90
72206;DHT22;60111;48.286;7.812;2023-06-04T09:33:49;15.30;79.50
72206;DHT22;60111;48.286;7.812;2023-06-04T09:36:22;15.30;78.90
72206;DHT22;60111;48.286;7.812;2023-06-04T09:38:54;15.40;78.90
72206;DHT22;60111;48.286;7.812;2023-06-04T09:41:27;15.40;78.20
72206;DHT22;60111;48.286;7.812;2023-06-04T09:44:01;15.40;78.10
72206;DHT22;60111;48.286;7.812;2023-06-04T09:46:35;15.40;79.70
72206;DHT22;60111;48.286;7.812;2023-06-04T09:49:08;15.50;80.30
72206;DHT22;60111;48.286;7.812;2023-06-04T09:51:46;15.50;80.90
72206;DHT22;60111;48.286;7.812;2023-06-04T09:54:17;15.50;80.70
72206;DHT22;60111;48.286;7.812;2023-06-04T09:56:50;15.60;80.90
72206;DHT22;60111;48.286;7.812;2023-06-04T09:59:22;15.70;81.20
72206;DHT22;60111;48.286;7.812;2023-06-04T10:01:56;15.80;81.80
72206;DHT22;60111;48.286;7.812;2023-06-04T10:04:42;15.90;80.60
72206;DHT22;60111;48.286;7.812;2023-06-04T10:07:15;15.90;79.10
72206;DHT22;60111;48.286;7.812;2023-06-04T10:09:48;15.90;78.60
72206;DHT22;60111;48.286;7.812;2023-06-04T10:12:25;16.00;78.60
72206;DHT22;60111;48.286;7.812;2023-06-04T10:15:05;16.10;77.60
72206;DHT22;60111;48.286;7.812;2023-06-04T10:20:19;16.10;79.10
72206;DHT22;60111;48.286;7.812;2023-06-04T10:22:52;16.10;79.50
72206;DHT22;60111;48.286;7.812;2023-06-04T10:25:26;16.20;80.00
72206;DHT22;60111;48.286;7.812;2023-06-04T10:28:00;16.30;79.40
72206;DHT22;60111;48.286;7.812;2023-06-04T10:30:33;16.50;77.00
72206;DHT22;60111;48.286;7.812;2023-06-04T10:33:05;16.60;80.50
72206;DHT22;60111;48.286;7.812;2023-06-04T10:35:38;16.70;78.80
72206;DHT22;60111;48.286;7.812;2023-06-04T10:38:13;16.80;77.80
72206;DHT22;60111;48.286;7.812;2023-06-04T10:40:48;17.00;77.10
72206;DHT22;60111;48.286;7.812;2023-06-04T10:43:21;17.00;75.30
72206;DHT22;60111;48.286;7.812;2023-06-04T10:45:53;17.10;74.50
72206;DHT22;60111;48.286;7.812;2023-06-04T10:48:26;17.30;76.20
72206;DHT22;60111;48.286;7.812;2023-06-04T10:50:58;17.60;75.50
72206;DHT22;60111;48.286;7.812;2023-06-04T10:53:36;17.80;72.60
72206;DHT22;60111;48.286;7.812;2023-06-04T10:56:07;17.90;76.50
72206;DHT22;60111;48.286;7.812;2023-06-04T10:58:40;18.10;72.60
72206;DHT22;60111;48.286;7.812;2023-06-04T11:01:22;18.20;74.60
72206;DHT22;60111;48.286;7.812;2023-06-04T11:03:48;18.40;72.40
72206;DHT22;60111;48.286;7.812;2023-06-04T11:06:22;18.50;68.80
72206;DHT22;60111;48.286;7.812;2023-06-04T11:09:04;18.50;70.00
72206;DHT22;60111;48.286;7.812;2023-06-04T11:11:37;18.50;71.80
72206;DHT22;60111;48.286;7.812;2023-06-04T11:14:12;18.70;73.10
72206;DHT22;60111;48.286;7.812;2023-06-04T11:16:49;18.80;73.00
72206;DHT22;60111;48.286;7.812;2023-06-04T11:19:22;18.90;71.90
72206;DHT22;60111;48.286;7.812;2023-06-04T11:21:55;18.90;70.90
72206;DHT22;60111;48.286;7.812;2023-06-04T11:24:27;18.90;70.80
72206;DHT22;60111;48.286;7.812;2023-06-04T11:27:01;19.00;69.80
72206;DHT22;60111;48.286;7.812;2023-06-04T11:29:34;19.00;69.00
72206;DHT22;60111;48.286;7.812;2023-06-04T11:32:07;19.00;69.80
72206;DHT22;60111;48.286;7.812;2023-06-04T11:34:39;19.00;68.50
72206;DHT22;60111;48.286;7.812;2023-06-04T11:37:12;19.10;69.40
72206;DHT22;60111;48.286;7.812;2023-06-04T11:39:44;19.10;68.50
72206;DHT22;60111;48.286;7.812;2023-06-04T11:42:17;19.20;70.90
72206;DHT22;60111;48.286;7.812;2023-06-04T11:45:00;19.30;70.90
72206;DHT22;60111;48.286;7.812;2023-06-04T11:47:25;19.50;70.20
72206;DHT22;60111;48.286;7.812;2023-06-04T11:49:58;19.60;68.80
72206;DHT22;60111;48.286;7.812;2023-06-04T11:52:32;19.70;69.10
72206;DHT22;60111;48.286;7.812;2023-06-04T11:55:11;19.80;68.90
72206;DHT22;60111;48.286;7.812;2023-06-04T11:57:44;19.90;67.50
72206;DHT22;60111;48.286;7.812;2023-06-04T12:00:17;19.90;67.00
72206;DHT22;60111;48.286;7.812;2023-06-04T12:02:52;19.90;67.70
72206;DHT22;60111;48.286;7.812;2023-06-04T12:05:31;20.00;67.30
72206;DHT22;60111;48.286;7.812;2023-06-04T12:08:09;20.10;68.20
72206;DHT22;60111;48.286;7.812;2023-06-04T12:10:42;20.30;68.30
72206;DHT22;60111;48.286;7.812;2023-06-04T12:13:15;20.40;65.80
72206;DHT22;60111;48.286;7.812;2023-06-04T12:15:56;20.50;66.00
72206;DHT22;60111;48.286;7.812;2023-06-04T12:18:25;20.60;67.60
72206;DHT22;60111;48.286;7.812;2023-06-04T12:20:58;20.80;67.00
72206;DHT22;60111;48.286;7.812;2023-06-04T12:23:31;21.10;64.40
72206;DHT22;60111;48.286;7.812;2023-06-04T12:26:03;21.20;64.80
72206;DHT22;60111;48.286;7.812;2023-06-04T12:28:36;21.30;66.80
72206;DHT22;60111;48.286;7.812;2023-06-04T12:31:16;21.60;63.80
72206;DHT22;60111;48.286;7.812;2023-06-04T12:33:49;21.80;62.60
72206;DHT22;60111;48.286;7.812;2023-06-04T12:36:22;21.90;62.40
72206;DHT22;60111;48.286;7.812;2023-06-04T12:38:58;22.10;63.10
72206;DHT22;60111;48.286;7.812;2023-06-04T12:41:31;22.20;63.10
72206;DHT22;60111;48.286;7.812;2023-06-04T12:44:04;22.50;61.60
72206;DHT22;60111;48.286;7.812;2023-06-04T12:46:37;22.80;59.60
72206;DHT22;60111;48.286;7.812;2023-06-04T12:49:10;22.90;62.20
72206;DHT22;60111;48.286;7.812;2023-06-04T12:51:43;23.10;60.80
72206;DHT22;60111;48.286;7.812;2023-06-04T12:54:17;23.30;60.70
72206;DHT22;60111;48.286;7.812;2023-06-04T12:56:50;23.50;60.20
72206;DHT22;60111;48.286;7.812;2023-06-04T12:59:28;23.70;59.40
72206;DHT22;60111;48.286;7.812;2023-06-04T13:01:57;23.90;59.50
72206;DHT22;60111;48.286;7.812;2023-06-04T13:04:30;24.40;57.60
72206;DHT22;60111;48.286;7.812;2023-06-04T13:07:02;24.90;55.30
72206;DHT22;60111;48.286;7.812;2023-06-04T13:09:35;25.30;50.20
72206;DHT22;60111;48.286;7.812;2023-06-04T13:12:08;25.40;50.20
72206;DHT22;60111;48.286;7.812;2023-06-04T13:14:41;25.50;46.20
72206;DHT22;60111;48.286;7.812;2023-06-04T13:17:14;25.60;45.90
72206;DHT22;60111;48.286;7.812;2023-06-04T13:19:47;25.90;48.00
72206;DHT22;60111;48.286;7.812;2023-06-04T13:22:19;26.30;46.00
72206;DHT22;60111;48.286;7.812;2023-06-04T13:24:52;26.60;46.70
72206;DHT22;60111;48.286;7.812;2023-06-04T13:27:24;26.70;43.60
72206;DHT22;60111;48.286;7.812;2023-06-04T13:29:57;26.70;42.70
72206;DHT22;60111;48.286;7.812;2023-06-04T13:32:30;26.80;44.60
72206;DHT22;60111;48.286;7.812;2023-06-04T13:35:03;26.90;43.80
72206;DHT22;60111;48.286;7.812;2023-06-04T13:37:35;26.80;43.60
72206;DHT22;60111;48.286;7.812;2023-06-04T13:40:09;26.70;41.30
72206;DHT22;60111;48.286;7.812;2023-06-04T13:42:42;26.70;43.20
72206;DHT22;60111;48.286;7.812;2023-06-04T13:45:15;26.70;41.90
72206;DHT22;60111;48.286;7.812;2023-06-04T13:47:48;26.60;44.20
72206;DHT22;60111;48.286;7.812;2023-06-04T13:50:21;26.60;40.90
72206;DHT22;60111;48.286;7.812;2023-06-04T13:52:53;26.50;43.30
72206;DHT22;60111;48.286;7.812;2023-06-04T13:55:26;26.50;42.50
72206;DHT22;60111;48.286;7.812;2023-06-04T13:57:59;26.50;43.00
72206;DHT22;60111;48.286;7.812;2023-06-04T14:00:33;26.50;42.20
72206;DHT22;60111;48.286;7.812;2023-06-04T14:03:06;26.50;41.90
72206;DHT22;60111;48.286;7.812;2023-06-04T14:05:38;26.40;42.10
72206;DHT22;60111;48.286;7.812;2023-06-04T14:08:12;26.30;40.70
72206;DHT22;60111;48.286;7.812;2023-06-04T14:10:44;26.50;41.10
72206;DHT22;60111;48.286;7.812;2023-06-04T14:13:17;26.80;40.40
72206;DHT22;60111;48.286;7.812;2023-06-04T14:15:49;27.00;40.00
72206;DHT22;60111;48.286;7.812;2023-06-04T14:18:22;27.10;40.00
72206;DHT22;60111;48.286;7.812;2023-06-04T14:20:55;27.30;38.00
72206;DHT22;60111;48.286;7.812;2023-06-04T14:23:27;27.40;39.60
72206;DHT22;60111;48.286;7.812;2023-06-04T14:26:00;27.50;38.50
72206;DHT22;60111;48.286;7.812;2023-06-04T14:28:32;27.50;38.20
72206;DHT22;60111;48.286;7.812;2023-06-04T14:31:06;27.40;37.70
72206;DHT22;60111;48.286;7.812;2023-06-04T14:33:38;27.40;39.00
72206;DHT22;60111;48.286;7.812;2023-06-04T14:36:12;27.40;39.40
72206;DHT22;60111;48.286;7.812;2023-06-04T14:38:44;27.60;38.10
72206;DHT22;60111;48.286;7.812;2023-06-04T14:41:17;27.70;37.70
72206;DHT22;60111;48.286;7.812;2023-06-04T14:43:50;27.90;38.10
72206;DHT22;60111;48.286;7.812;2023-06-04T14:46:22;28.00;38.70
72206;DHT22;60111;48.286;7.812;2023-06-04T14:48:56;28.20;38.60
72206;DHT22;60111;48.286;7.812;2023-06-04T14:51:28;28.20;37.60
72206;DHT22;60111;48.286;7.812;2023-06-04T14:54:01;27.90;37.00
72206;DHT22;60111;48.286;7.812;2023-06-04T14:56:33;27.60;35.50
72206;DHT22;60111;48.286;7.812;2023-06-04T14:59:06;27.50;36.50
72206;DHT22;60111;48.286;7.812;2023-06-04T15:01:40;27.60;37.70
72206;DHT22;60111;48.286;7.812;2023-06-04T15:04:13;27.70;38.40
72206;DHT22;60111;48.286;7.812;2023-06-04T15:06:46;27.80;36.10
72206;DHT22;60111;48.286;7.812;2023-06-04T15:09:19;27.70;35.60
72206;DHT22;60111;48.286;7.812;2023-06-04T15:11:52;27.50;37.40
72206;DHT22;60111;48.286;7.812;2023-06-04T15:14:24;27.40;37.30
72206;DHT22;60111;48.286;7.812;2023-06-04T15:16:57;27.50;37.00
72206;DHT22;60111;48.286;7.812;2023-06-04T15:19:29;27.30;37.50
72206;DHT22;60111;48.286;7.812;2023-06-04T15:22:02;27.30;38.20
72206;DHT22;60111;48.286;7.812;2023-06-04T15:24:35;27.20;37.40
72206;DHT22;60111;48.286;7.812;2023-06-04T15:27:07;27.30;37.60
72206;DHT22;60111;48.286;7.812;2023-06-04T15:29:40;27.50;37.30
72206;DHT22;60111;48.286;7.812;2023-06-04T15:32:12;27.60;37.20
72206;DHT22;60111;48.286;7.812;2023-06-04T15:34:45;27.70;35.90
72206;DHT22;60111;48.286;7.812;2023-06-04T15:37:18;27.80;37.30
72206;DHT22;60111;48.286;7.812;2023-06-04T15:39:50;27.90;37.00
72206;DHT22;60111;48.286;7.812;2023-06-04T15:42:23;28.10;37.20
72206;DHT22;60111;48.286;7.812;2023-06-04T15:44:56;28.10;35.60
72206;DHT22;60111;48.286;7.812;2023-06-04T15:47:28;28.20;35.30
72206;DHT22;60111;48.286;7.812;2023-06-04T15:50:01;28.20;36.90
72206;DHT22;60111;48.286;7.812;2023-06-04T15:52:33;28.30;36.80
72206;DHT22;60111;48.286;7.812;2023-06-04T15:55:06;28.50;37.10
72206;DHT22;60111;48.286;7.812;2023-06-04T15:57:39;28.40;35.90
72206;DHT22;60111;48.286;7.812;2023-06-04T16:00:13;28.30;36.60
72206;DHT22;60111;48.286;7.812;2023-06-04T16:02:45;28.10;36.70
72206;DHT22;60111;48.286;7.812;2023-06-04T16:05:18;28.10;36.60
72206;DHT22;60111;48.286;7.812;2023-06-04T16:07:52;28.00;36.40
72206;DHT22;60111;48.286;7.812;2023-06-04T16:10:24;27.90;36.70